Time;durP1;ratioP1;P1;durP2;ratioP2;P2;SDS_P1;SDS_P2;PMS_P1;PMS_P2;Temp;Humidity;BMP_temperature;BMP_pressure;BME280_temperature;BME280_humidity;BME280_pressure;Samples;Min_cycle;Max_cycle;Signal;HPM_P1;HPM_P2
2023/10/03 00:00:38;;;;;;;9.65;5.47;;;;;;;;;;5069494;28;20294;-61
2023/10/03 00:03:08;;;;;;;15.20;6.78;;;;;;;;;;5067736;28;20456;-61
2023/10/03 00:05:36;;;;;;;12.48;6.28;;;;;;;;;;5069789;28;20303;-62
2023/10/03 00:08:05;;;;;;;12.93;6.20;;;;;;;;;;5067830;28;20203;-61
2023/10/03 00:10:35;;;;;;;9.73;6.20;;;;;;;;;;5069373;28;20207;-62
2023/10/03 00:13:07;;;;;;;13.13;5.93;;;;;;;;;;5068985;28;20214;-61
2023/10/03 00:15:35;;;;;;;9.20;5.82;;;;;;;;;;5069006;28;20207;-62
2023/10/03 00:18:02;;;;;;;12.70;6.57;;;;;;;;;;5068626;28;20290;-62
2023/10/03 00:20:29;;;;;;;11.00;6.43;;;;;;;;;;5065830;28;20231;-62
2023/10/03 00:22:57;;;;;;;11.30;5.75;;;;;;;;;;5068729;28;20298;-62
2023/10/03 00:25:25;;;;;;;12.07;6.75;;;;;;;;;;5068473;28;20227;-61
2023/10/03 00:27:54;;;;;;;10.10;5.55;;;;;;;;;;5067172;28;20600;-62
2023/10/03 00:30:23;;;;;;;9.98;5.85;;;;;;;;;;5068240;28;20256;-63
2023/10/03 00:32:51;;;;;;;10.18;5.30;;;;;;;;;;5068470;28;20324;-63
2023/10/03 00:35:19;;;;;;;10.23;5.88;;;;;;;;;;5068580;28;20218;-62
2023/10/03 00:37:48;;;;;;;11.60;6.00;;;;;;;;;;5068317;28;20218;-62
2023/10/03 00:40:25;;;;;;;10.48;6.10;;;;;;;;;;5068537;28;20207;-62
2023/10/03 00:42:57;;;;;;;12.77;6.30;;;;;;;;;;5067656;28;20222;-63
2023/10/03 00:45:24;;;;;;;11.05;6.15;;;;;;;;;;5066942;28;20753;-62
2023/10/03 00:47:53;;;;;;;8.52;5.47;;;;;;;;;;5066865;28;20664;-62
2023/10/03 00:50:23;;;;;;;12.25;6.85;;;;;;;;;;5067801;28;20231;-62
2023/10/03 00:52:50;;;;;;;12.43;6.60;;;;;;;;;;5068035;28;20861;-62
2023/10/03 00:55:18;;;;;;;12.02;6.50;;;;;;;;;;5068139;28;20302;-62
2023/10/03 00:57:45;;;;;;;14.20;6.45;;;;;;;;;;5065548;28;20218;-61
2023/10/03 01:00:18;;;;;;;11.27;6.68;;;;;;;;;;5066621;28;20206;-62
2023/10/03 01:02:49;;;;;;;12.52;6.13;;;;;;;;;;5068072;28;20875;-61
2023/10/03 01:05:16;;;;;;;10.98;5.90;;;;;;;;;;5068131;28;20252;-61
2023/10/03 01:07:44;;;;;;;11.50;6.88;;;;;;;;;;5068257;28;20213;-62
2023/10/03 01:10:13;;;;;;;13.30;5.57;;;;;;;;;;5068041;28;20214;-62
2023/10/03 01:12:41;;;;;;;10.88;6.05;;;;;;;;;;5068410;28;20723;-61
2023/10/03 01:15:13;;;;;;;11.90;6.07;;;;;;;;;;5068343;28;20203;-62
2023/10/03 01:17:43;;;;;;;13.13;6.20;;;;;;;;;;5066990;28;20267;-61
2023/10/03 01:20:16;;;;;;;13.23;6.60;;;;;;;;;;5067995;28;20630;-61
2023/10/03 01:22:46;;;;;;;12.35;6.38;;;;;;;;;;5060966;28;20268;-62
2023/10/03 01:25:15;;;;;;;11.48;6.07;;;;;;;;;;5064310;28;20227;-63
2023/10/03 01:27:42;;;;;;;10.88;5.75;;;;;;;;;;5067486;28;20203;-63
2023/10/03 01:30:10;;;;;;;11.48;6.43;;;;;;;;;;5067576;28;20861;-63
2023/10/03 01:32:41;;;;;;;12.75;6.75;;;;;;;;;;5067695;28;20231;-63
2023/10/03 01:35:09;;;;;;;11.68;6.53;;;;;;;;;;5067787;28;20646;-62
2023/10/03 01:37:36;;;;;;;12.00;6.32;;;;;;;;;;5067548;28;20285;-62
2023/10/03 01:40:08;;;;;;;12.25;6.47;;;;;;;;;;5067805;28;20211;-61
2023/10/03 01:42:37;;;;;;;12.25;7.05;;;;;;;;;;5067084;28;20561;-61
2023/10/03 01:45:04;;;;;;;13.85;7.35;;;;;;;;;;5067287;28;20266;-61
2023/10/03 01:47:32;;;;;;;13.88;6.80;;;;;;;;;;5067662;28;20203;-61
2023/10/03 01:49:59;;;;;;;11.43;6.70;;;;;;;;;;5067632;28;20567;-62
2023/10/03 01:52:27;;;;;;;13.93;6.53;;;;;;;;;;5066838;28;20206;-61
2023/10/03 01:54:54;;;;;;;13.05;7.03;;;;;;;;;;5067150;28;20756;-62
2023/10/03 01:57:21;;;;;;;13.90;6.22;;;;;;;;;;5067355;28;20831;-62
2023/10/03 01:59:50;;;;;;;15.03;7.30;;;;;;;;;;5067365;28;20207;-62
2023/10/03 02:02:17;;;;;;;13.20;6.35;;;;;;;;;;5067280;28;20243;-61
2023/10/03 02:04:45;;;;;;;14.90;6.73;;;;;;;;;;5067527;28;20333;-61
2023/10/03 02:07:13;;;;;;;11.90;6.67;;;;;;;;;;5064767;28;20695;-61
2023/10/03 02:09:40;;;;;;;12.60;6.33;;;;;;;;;;5067563;28;20207;-61
2023/10/03 02:12:07;;;;;;;14.90;6.83;;;;;;;;;;5067051;28;20207;-61
2023/10/03 02:14:34;;;;;;;16.80;6.97;;;;;;;;;;5067083;28;20419;-61
2023/10/03 02:17:05;;;;;;;13.30;7.37;;;;;;;;;;5067430;28;20215;-61
2023/10/03 02:19:33;;;;;;;14.33;6.97;;;;;;;;;;5066924;28;20723;-62
2023/10/03 02:22:01;;;;;;;13.87;6.43;;;;;;;;;;5066393;28;20226;-61
2023/10/03 02:24:28;;;;;;;13.33;7.00;;;;;;;;;;5060356;28;20233;-61
2023/10/03 02:26:56;;;;;;;14.60;7.20;;;;;;;;;;5066689;28;20687;-61
2023/10/03 02:29:24;;;;;;;15.23;6.80;;;;;;;;;;5067110;28;20210;-61
2023/10/03 02:31:53;;;;;;;10.17;6.37;;;;;;;;;;5066343;28;20577;-61
2023/10/03 02:34:21;;;;;;;14.97;6.73;;;;;;;;;;5066455;28;20199;-61
2023/10/03 02:36:48;;;;;;;11.80;6.40;;;;;;;;;;5060216;28;20283;-62
2023/10/03 02:39:24;;;;;;;12.68;6.88;;;;;;;;;;5066789;28;20239;-61
2023/10/03 02:41:52;;;;;;;10.93;6.27;;;;;;;;;;5066636;28;20203;-61
2023/10/03 02:44:19;;;;;;;15.23;8.10;;;;;;;;;;5066462;28;20602;-61
2023/10/03 02:46:48;;;;;;;12.27;6.90;;;;;;;;;;5066053;28;20207;-62
2023/10/03 02:49:16;;;;;;;18.02;7.53;;;;;;;;;;5066738;28;20584;-62
2023/10/03 02:51:45;;;;;;;12.05;6.47;;;;;;;;;;5066679;28;20226;-61
2023/10/03 02:54:12;;;;;;;13.37;6.90;;;;;;;;;;5064755;28;20215;-62
2023/10/03 02:56:39;;;;;;;14.13;7.13;;;;;;;;;;5065561;28;20664;-61
2023/10/03 02:59:06;;;;;;;13.43;6.20;;;;;;;;;;5066494;28;20199;-61
2023/10/03 03:01:35;;;;;;;14.87;7.40;;;;;;;;;;5057925;28;20204;-62
2023/10/03 03:04:05;;;;;;;15.95;6.85;;;;;;;;;;5062678;28;20253;-61
2023/10/03 03:06:32;;;;;;;16.10;7.43;;;;;;;;;;5066265;28;20207;-61
2023/10/03 03:09:02;;;;;;;12.73;6.83;;;;;;;;;;5066891;28;20451;-62
2023/10/03 03:11:31;;;;;;;17.08;7.20;;;;;;;;;;5066009;28;20289;-61
2023/10/03 03:13:58;;;;;;;13.13;7.60;;;;;;;;;;5070051;28;20203;-60
2023/10/03 03:16:25;;;;;;;12.27;7.30;;;;;;;;;;5070279;28;20740;-61
2023/10/03 03:18:53;;;;;;;15.93;7.73;;;;;;;;;;5070154;28;20199;-63
2023/10/03 03:21:21;;;;;;;16.00;7.43;;;;;;;;;;5070270;28;20202;-61
2023/10/03 03:23:56;;;;;;;12.77;6.97;;;;;;;;;;5069965;28;20222;-61
2023/10/03 03:26:36;;;;;;;18.30;8.43;;;;;;;;;;5070030;28;20221;-61
2023/10/03 03:29:05;;;;;;;15.47;7.20;;;;;;;;;;5061437;28;20203;-61
2023/10/03 03:31:33;;;;;;;12.77;7.47;;;;;;;;;;5070442;28;20210;-61
2023/10/03 03:34:01;;;;;;;12.33;7.07;;;;;;;;;;5069807;28;20747;-61
2023/10/03 03:36:30;;;;;;;16.25;8.00;;;;;;;;;;5069786;28;20237;-61
2023/10/03 03:38:58;;;;;;;15.77;7.57;;;;;;;;;;5070313;28;20217;-61
2023/10/03 03:41:27;;;;;;;17.47;7.53;;;;;;;;;;5069463;28;20203;-60
2023/10/03 03:43:54;;;;;;;15.60;7.57;;;;;;;;;;5069712;28;20233;-61
2023/10/03 03:46:22;;;;;;;19.77;7.77;;;;;;;;;;5068891;28;20246;-61
2023/10/03 03:48:49;;;;;;;13.52;7.28;;;;;;;;;;5069851;28;20238;-61
2023/10/03 03:51:17;;;;;;;13.23;7.03;;;;;;;;;;5069541;28;20293;-61
2023/10/03 03:53:44;;;;;;;13.10;7.40;;;;;;;;;;5069290;28;20234;-61
2023/10/03 03:56:12;;;;;;;12.93;7.20;;;;;;;;;;5069777;28;20207;-61
2023/10/03 03:58:44;;;;;;;16.08;7.22;;;;;;;;;;5069883;28;20213;-61
2023/10/03 04:01:14;;;;;;;14.43;7.17;;;;;;;;;;5069602;28;20210;-61
2023/10/03 04:03:42;;;;;;;16.40;7.90;;;;;;;;;;5069594;28;20705;-61
2023/10/03 04:06:09;;;;;;;12.65;8.23;;;;;;;;;;5069315;28;20230;-61
2023/10/03 04:08:36;;;;;;;14.75;8.07;;;;;;;;;;5069724;28;20687;-61
2023/10/03 04:11:03;;;;;;;17.10;8.50;;;;;;;;;;5069041;28;20207;-60
2023/10/03 04:13:33;;;;;;;17.23;8.03;;;;;;;;;;5069192;28;20238;-61
2023/10/03 04:16:06;;;;;;;22.13;8.52;;;;;;;;;;5049642;28;20219;-62
2023/10/03 04:18:34;;;;;;;21.80;8.77;;;;;;;;;;5049499;28;20666;-61
2023/10/03 04:21:02;;;;;;;19.60;8.80;;;;;;;;;;5048577;28;20322;-62
2023/10/03 04:23:29;;;;;;;18.50;9.13;;;;;;;;;;5050122;28;20281;-61
2023/10/03 04:25:56;;;;;;;18.63;9.02;;;;;;;;;;5069054;28;20258;-61
2023/10/03 04:28:23;;;;;;;17.27;9.40;;;;;;;;;;5068999;28;20214;-62
2023/10/03 04:30:53;;;;;;;26.17;10.27;;;;;;;;;;5068803;28;20234;-62
2023/10/03 04:33:23;;;;;;;22.50;10.17;;;;;;;;;;5069131;28;20211;-62
2023/10/03 04:35:51;;;;;;;19.88;9.65;;;;;;;;;;5068896;28;20588;-62
2023/10/03 04:38:18;;;;;;;22.60;9.88;;;;;;;;;;5067650;28;20207;-61
2023/10/03 04:40:47;;;;;;;20.55;10.20;;;;;;;;;;5069081;28;20860;-62
2023/10/03 04:43:14;;;;;;;23.73;10.38;;;;;;;;;;5068572;28;20915;-62
2023/10/03 04:45:42;;;;;;;24.30;10.50;;;;;;;;;;5067919;28;20295;-62
2023/10/03 04:48:10;;;;;;;26.55;11.60;;;;;;;;;;5067386;28;20211;-61
2023/10/03 04:50:39;;;;;;;25.92;11.00;;;;;;;;;;5068425;28;20217;-61
2023/10/03 04:53:09;;;;;;;21.23;10.38;;;;;;;;;;5068518;28;20661;-62
2023/10/03 04:55:36;;;;;;;29.65;11.30;;;;;;;;;;5068684;28;20213;-61
2023/10/03 04:58:03;;;;;;;22.88;10.73;;;;;;;;;;5067925;28;20234;-61
2023/10/03 05:00:30;;;;;;;26.13;11.20;;;;;;;;;;5067416;28;20579;-62
2023/10/03 05:02:58;;;;;;;26.23;11.50;;;;;;;;;;5067960;28;20744;-62
2023/10/03 05:05:25;;;;;;;22.67;10.50;;;;;;;;;;5068121;28;20229;-62
2023/10/03 05:07:56;;;;;;;25.10;11.88;;;;;;;;;;5068158;28;20290;-62
2023/10/03 05:10:23;;;;;;;27.08;10.95;;;;;;;;;;5068009;28;20210;-62
2023/10/03 05:12:51;;;;;;;24.98;10.30;;;;;;;;;;5067705;28;20276;-62
2023/10/03 05:15:19;;;;;;;24.58;11.40;;;;;;;;;;5067932;28;20225;-62
2023/10/03 05:17:48;;;;;;;22.58;10.73;;;;;;;;;;5067990;28;20208;-63
2023/10/03 05:20:17;;;;;;;23.98;10.57;;;;;;;;;;5067389;28;20294;-61
2023/10/03 05:22:45;;;;;;;22.35;10.35;;;;;;;;;;5050589;28;20207;-63
2023/10/03 05:25:17;;;;;;;25.98;10.57;;;;;;;;;;5067654;28;20251;-61
2023/10/03 05:27:44;;;;;;;24.58;10.13;;;;;;;;;;5066811;28;20203;-61
2023/10/03 05:30:14;;;;;;;24.00;10.85;;;;;;;;;;5067530;28;20207;-61
2023/10/03 05:32:43;;;;;;;21.52;10.00;;;;;;;;;;5067478;28;20286;-61
2023/10/03 05:35:12;;;;;;;24.42;10.18;;;;;;;;;;5066977;28;20696;-64
2023/10/03 05:37:40;;;;;;;22.73;10.82;;;;;;;;;;5067013;28;20206;-63
2023/10/03 05:40:12;;;;;;;23.25;10.05;;;;;;;;;;5067444;28;20203;-64
2023/10/03 05:42:43;;;;;;;20.38;9.88;;;;;;;;;;5067191;28;20234;-64
2023/10/03 05:45:12;;;;;;;21.02;10.35;;;;;;;;;;5067286;28;20253;-62
2023/10/03 05:47:39;;;;;;;24.00;11.07;;;;;;;;;;5066941;28;20285;-65
2023/10/03 05:50:09;;;;;;;21.42;9.68;;;;;;;;;;5066809;28;20302;-66
2023/10/03 05:52:36;;;;;;;28.63;10.35;;;;;;;;;;5067639;28;20272;-65
2023/10/03 05:55:04;;;;;;;19.40;9.73;;;;;;;;;;5066340;28;20203;-67
2023/10/03 05:57:32;;;;;;;25.25;10.73;;;;;;;;;;5066787;28;20800;-65
2023/10/03 06:00:01;;;;;;;20.45;9.98;;;;;;;;;;5067295;28;20709;-66
2023/10/03 06:02:28;;;;;;;24.13;10.73;;;;;;;;;;5059415;28;20589;-66
2023/10/03 06:04:56;;;;;;;22.17;10.20;;;;;;;;;;5047231;28;20298;-66
2023/10/03 06:07:23;;;;;;;24.23;10.68;;;;;;;;;;5066486;28;20214;-66
2023/10/03 06:09:52;;;;;;;22.15;10.57;;;;;;;;;;5066815;28;20260;-67
2023/10/03 06:12:19;;;;;;;24.13;11.23;;;;;;;;;;5063078;28;20211;-69
2023/10/03 06:14:46;;;;;;;28.50;11.30;;;;;;;;;;5066687;28;20677;-66
2023/10/03 06:17:17;;;;;;;23.08;10.30;;;;;;;;;;5055749;28;20207;-66
2023/10/03 06:19:44;;;;;;;20.88;10.07;;;;;;;;;;5066326;28;20225;-65
2023/10/03 06:22:12;;;;;;;22.92;10.50;;;;;;;;;;5066314;28;20206;-66
2023/10/03 06:24:40;;;;;;;18.65;9.40;;;;;;;;;;5066765;28;20213;-66
2023/10/03 06:27:09;;;;;;;25.65;10.10;;;;;;;;;;5066413;28;20254;-66
2023/10/03 06:29:38;;;;;;;23.25;10.05;;;;;;;;;;5066926;28;20293;-66
2023/10/03 06:32:05;;;;;;;20.10;9.90;;;;;;;;;;5066421;28;20207;-65
2023/10/03 06:34:34;;;;;;;22.75;10.27;;;;;;;;;;5066830;28;20218;-66
2023/10/03 06:37:04;;;;;;;24.02;10.27;;;;;;;;;;5066333;28;20681;-66
2023/10/03 06:39:31;;;;;;;24.83;10.05;;;;;;;;;;5066732;28;20294;-64
2023/10/03 06:41:58;;;;;;;20.92;9.85;;;;;;;;;;5065960;28;20260;-65
2023/10/03 06:44:26;;;;;;;19.55;9.88;;;;;;;;;;5065808;28;20734;-66
2023/10/03 06:46:53;;;;;;;21.15;10.07;;;;;;;;;;5066513;28;20383;-66
2023/10/03 06:49:23;;;;;;;22.95;10.60;;;;;;;;;;5066752;28;20217;-66
2023/10/03 06:51:56;;;;;;;27.13;10.35;;;;;;;;;;5066111;28;20631;-65
2023/10/03 06:54:24;;;;;;;22.70;10.10;;;;;;;;;;5066761;28;20207;-66
2023/10/03 06:56:51;;;;;;;20.67;9.30;;;;;;;;;;5066137;28;20223;-67
2023/10/03 06:59:18;;;;;;;17.55;9.20;;;;;;;;;;5066754;28;20230;-68
2023/10/03 07:01:46;;;;;;;22.02;10.25;;;;;;;;;;5065641;28;20209;-66
2023/10/03 07:04:13;;;;;;;20.40;9.00;;;;;;;;;;5066220;28;20214;-67
2023/10/03 07:06:41;;;;;;;21.90;9.15;;;;;;;;;;5064700;28;20222;-66
2023/10/03 07:09:10;;;;;;;18.70;9.38;;;;;;;;;;5061833;28;20670;-66
2023/10/03 07:11:38;;;;;;;21.40;10.35;;;;;;;;;;5062498;28;20203;-66
2023/10/03 07:14:05;;;;;;;19.88;10.23;;;;;;;;;;5065614;28;20319;-65
2023/10/03 07:16:37;;;;;;;18.98;9.90;;;;;;;;;;5064882;28;20650;-64
2023/10/03 07:19:04;;;;;;;15.27;8.88;;;;;;;;;;5066387;28;20211;-65
2023/10/03 07:21:34;;;;;;;19.52;9.00;;;;;;;;;;5056443;28;20199;-65
2023/10/03 07:24:01;;;;;;;20.60;10.02;;;;;;;;;;5066192;28;20681;-65
2023/10/03 07:26:29;;;;;;;18.67;9.57;;;;;;;;;;5066186;28;20311;-66
2023/10/03 07:28:59;;;;;;;18.58;8.98;;;;;;;;;;5066067;28;20278;-66
2023/10/03 07:31:26;;;;;;;19.50;9.80;;;;;;;;;;5066345;28;20583;-66
2023/10/03 07:33:54;;;;;;;23.38;10.13;;;;;;;;;;5064870;28;20226;-66
2023/10/03 07:36:22;;;;;;;22.98;10.52;;;;;;;;;;5065732;28;20238;-66
2023/10/03 07:38:49;;;;;;;21.88;9.40;;;;;;;;;;5065326;28;20191;-65
2023/10/03 07:41:17;;;;;;;18.85;9.82;;;;;;;;;;5066283;28;20227;-66
2023/10/03 07:43:47;;;;;;;22.08;10.25;;;;;;;;;;5065488;28;20219;-66
2023/10/03 07:46:14;;;;;;;19.60;9.70;;;;;;;;;;5065389;28;20700;-66
2023/10/03 07:48:42;;;;;;;18.60;9.15;;;;;;;;;;5065206;28;20289;-65
2023/10/03 07:51:16;;;;;;;17.95;9.10;;;;;;;;;;5065839;28;20225;-67
2023/10/03 07:53:43;;;;;;;24.40;9.48;;;;;;;;;;5064941;28;20234;-65
2023/10/03 07:56:16;;;;;;;19.38;9.25;;;;;;;;;;5067462;28;20203;-69
2023/10/03 07:58:44;;;;;;;17.25;8.63;;;;;;;;;;5046232;28;20210;-64
2023/10/03 08:01:13;;;;;;;13.30;7.97;;;;;;;;;;5064480;28;20748;-63
2023/10/03 08:03:40;;;;;;;16.17;8.13;;;;;;;;;;5069636;28;20207;-65
2023/10/03 08:06:10;;;;;;;16.85;8.95;;;;;;;;;;5068963;28;20223;-65
2023/10/03 08:08:37;;;;;;;15.98;8.93;;;;;;;;;;5061673;28;20203;-64
2023/10/03 08:11:06;;;;;;;19.15;8.70;;;;;;;;;;5053585;28;20206;-64
2023/10/03 08:13:38;;;;;;;16.80;8.55;;;;;;;;;;5065519;28;20233;-67
2023/10/03 08:16:06;;;;;;;15.48;8.43;;;;;;;;;;5060397;28;20203;-65
2023/10/03 08:18:36;;;;;;;17.50;8.02;;;;;;;;;;5068874;28;20203;-67
2023/10/03 08:21:03;;;;;;;14.55;8.07;;;;;;;;;;5069309;28;20214;-68
2023/10/03 08:23:32;;;;;;;16.73;7.60;;;;;;;;;;5068782;28;20310;-64
2023/10/03 08:26:02;;;;;;;14.63;8.40;;;;;;;;;;5068254;28;20331;-68
2023/10/03 08:28:29;;;;;;;14.18;7.30;;;;;;;;;;5067356;28;20598;-66
2023/10/03 08:30:57;;;;;;;13.15;7.85;;;;;;;;;;5067285;28;20210;-67
2023/10/03 08:33:24;;;;;;;12.80;7.30;;;;;;;;;;5068295;28;20268;-66
2023/10/03 08:35:53;;;;;;;11.20;6.60;;;;;;;;;;5067341;28;20199;-65
2023/10/03 08:38:20;;;;;;;14.40;6.90;;;;;;;;;;5068260;28;20215;-64
2023/10/03 08:40:50;;;;;;;10.02;6.18;;;;;;;;;;5059618;28;20203;-67
2023/10/03 08:43:18;;;;;;;13.52;6.53;;;;;;;;;;5080729;28;20326;-64
2023/10/03 08:45:53;;;;;;;7.80;5.95;;;;;;;;;;5070752;28;20254;-64
2023/10/03 08:48:24;;;;;;;9.18;5.93;;;;;;;;;;5067475;28;20215;-64
2023/10/03 08:50:57;;;;;;;10.30;5.80;;;;;;;;;;5067504;28;20260;-66
2023/10/03 08:53:29;;;;;;;5.93;4.45;;;;;;;;;;5064319;28;20205;-66
2023/10/03 08:55:58;;;;;;;10.02;5.38;;;;;;;;;;5068035;28;20211;-66
2023/10/03 08:58:26;;;;;;;6.70;4.68;;;;;;;;;;5063864;28;20296;-66
2023/10/03 09:01:07;;;;;;;5.57;4.72;;;;;;;;;;5065952;28;20209;-64
2023/10/03 09:03:58;;;;;;;7.32;5.05;;;;;;;;;;5075724;28;20206;-65
2023/10/03 09:06:49;;;;;;;7.50;4.95;;;;;;;;;;5066067;28;20229;-65
2023/10/03 09:09:17;;;;;;;5.25;4.32;;;;;;;;;;5057157;28;20854;-65
2023/10/03 09:11:51;;;;;;;5.50;4.43;;;;;;;;;;5067530;28;20207;-67
2023/10/03 09:14:20;;;;;;;5.70;4.43;;;;;;;;;;5065079;28;20219;-67
2023/10/03 09:16:50;;;;;;;8.02;4.53;;;;;;;;;;5075211;28;20195;-67
2023/10/03 09:19:23;;;;;;;10.55;4.80;;;;;;;;;;5066793;28;20211;-66
2023/10/03 09:21:51;;;;;;;6.57;4.43;;;;;;;;;;5065284;28;20215;-67
2023/10/03 09:24:20;;;;;;;5.05;4.05;;;;;;;;;;5066883;28;20210;-65
2023/10/03 09:26:51;;;;;;;7.35;4.55;;;;;;;;;;5073986;28;20699;-65
2023/10/03 09:29:30;;;;;;;8.23;4.50;;;;;;;;;;5070698;28;20214;-65
2023/10/03 09:32:07;;;;;;;4.88;4.30;;;;;;;;;;5070752;28;20207;-66
2023/10/03 09:34:34;;;;;;;8.65;4.40;;;;;;;;;;5055624;28;20351;-66
2023/10/03 09:37:02;;;;;;;6.65;4.30;;;;;;;;;;5068855;28;20220;-68
2023/10/03 09:39:39;;;;;;;4.82;4.13;;;;;;;;;;5059652;28;20684;-68
2023/10/03 09:42:09;;;;;;;5.13;3.97;;;;;;;;;;5059288;28;20215;-65
2023/10/03 09:44:37;;;;;;;5.78;4.68;;;;;;;;;;5054984;28;20239;-66
2023/10/03 09:47:06;;;;;;;7.95;4.50;;;;;;;;;;5062102;28;20223;-65
2023/10/03 09:49:38;;;;;;;8.15;4.57;;;;;;;;;;5065905;28;20238;-64
2023/10/03 09:52:09;;;;;;;6.75;4.25;;;;;;;;;;5064731;28;20211;-67
2023/10/03 09:54:39;;;;;;;9.10;4.55;;;;;;;;;;5066473;28;20422;-67
2023/10/03 09:57:16;;;;;;;5.20;3.90;;;;;;;;;;5062142;28;20242;-67
2023/10/03 09:59:45;;;;;;;7.75;4.90;;;;;;;;;;5063532;28;20283;-66
2023/10/03 10:02:14;;;;;;;6.13;3.85;;;;;;;;;;5066225;28;20221;-66
2023/10/03 10:04:42;;;;;;;5.55;3.95;;;;;;;;;;5066067;28;20667;-65
2023/10/03 10:07:16;;;;;;;6.05;4.80;;;;;;;;;;5064087;28;20229;-65
2023/10/03 10:10:02;;;;;;;5.43;4.25;;;;;;;;;;5062361;28;20202;-65
2023/10/03 10:12:29;;;;;;;5.10;4.57;;;;;;;;;;5063434;28;20207;-62
2023/10/03 10:15:13;;;;;;;4.82;3.90;;;;;;;;;;5066480;28;20211;-64
2023/10/03 10:17:45;;;;;;;7.85;4.03;;;;;;;;;;5064059;28;20245;-63
2023/10/03 10:20:17;;;;;;;7.57;4.30;;;;;;;;;;5064954;28;20211;-63
2023/10/03 10:23:16;;;;;;;5.03;4.53;;;;;;;;;;5065958;28;20203;-69
2023/10/03 10:25:51;;;;;;;12.73;4.35;;;;;;;;;;5051813;28;20284;-69
2023/10/03 10:28:22;;;;;;;13.20;4.53;;;;;;;;;;5064999;28;20226;-68
2023/10/03 10:31:08;;;;;;;5.43;4.88;;;;;;;;;;5063261;28;20199;-68
2023/10/03 10:33:35;;;;;;;7.03;4.20;;;;;;;;;;5065765;28;20323;-71
2023/10/03 10:36:03;;;;;;;9.45;4.78;;;;;;;;;;5061990;28;20239;-72
2023/10/03 10:38:47;;;;;;;8.13;4.38;;;;;;;;;;5063327;28;20219;-72
2023/10/03 10:41:28;;;;;;;11.13;5.63;;;;;;;;;;5065486;28;20211;-73
2023/10/03 10:44:13;;;;;;;6.57;4.28;;;;;;;;;;5065473;28;21022;-71
2023/10/03 10:46:44;;;;;;;8.43;4.28;;;;;;;;;;5064688;28;20221;-72
2023/10/03 10:49:28;;;;;;;4.95;4.55;;;;;;;;;;5065862;28;20215;-72
2023/10/03 10:51:57;;;;;;;6.15;4.38;;;;;;;;;;5063458;28;20333;-71
2023/10/03 10:54:24;;;;;;;6.50;4.50;;;;;;;;;;5065507;28;20210;-72
2023/10/03 10:57:00;;;;;;;5.90;5.03;;;;;;;;;;5065539;28;20290;-71
2023/10/03 10:59:28;;;;;;;4.82;4.32;;;;;;;;;;5066836;28;20660;-63
2023/10/03 11:01:57;;;;;;;5.47;4.97;;;;;;;;;;5055577;28;20195;-63
2023/10/03 11:04:24;;;;;;;7.97;4.82;;;;;;;;;;5062807;28;20689;-63
2023/10/03 11:06:52;;;;;;;6.22;4.60;;;;;;;;;;5064532;28;20227;-63
2023/10/03 11:09:20;;;;;;;7.93;4.88;;;;;;;;;;5059741;28;20209;-63
2023/10/03 11:11:48;;;;;;;7.35;4.45;;;;;;;;;;5062396;28;20217;-64
2023/10/03 11:14:28;;;;;;;8.48;5.13;;;;;;;;;;5065086;28;20657;-63
2023/10/03 11:16:56;;;;;;;7.05;4.85;;;;;;;;;;5064177;28;20206;-63
2023/10/03 11:19:23;;;;;;;6.05;4.40;;;;;;;;;;5064597;28;20203;-63
2023/10/03 11:21:50;;;;;;;5.07;4.43;;;;;;;;;;5063859;28;20677;-64
2023/10/03 11:24:18;;;;;;;6.25;4.25;;;;;;;;;;5063984;28;20792;-64
2023/10/03 11:26:45;;;;;;;4.70;4.25;;;;;;;;;;5063852;28;20285;-63
2023/10/03 11:29:14;;;;;;;6.00;4.65;;;;;;;;;;5065502;28;20548;-63
2023/10/03 11:31:44;;;;;;;5.32;4.38;;;;;;;;;;5068365;28;20221;-67
2023/10/03 11:34:11;;;;;;;6.63;4.47;;;;;;;;;;5069494;28;20256;-65
2023/10/03 11:36:42;;;;;;;5.28;4.05;;;;;;;;;;5068641;28;20730;-65
2023/10/03 11:39:10;;;;;;;4.90;4.50;;;;;;;;;;5069487;28;20806;-64
2023/10/03 11:41:38;;;;;;;5.22;4.13;;;;;;;;;;5068868;28;20214;-67
2023/10/03 11:44:07;;;;;;;4.68;4.28;;;;;;;;;;5068937;28;20233;-66
2023/10/03 11:46:37;;;;;;;10.02;4.97;;;;;;;;;;5069200;28;20728;-67
2023/10/03 11:49:08;;;;;;;7.10;4.03;;;;;;;;;;5068990;28;20232;-66
2023/10/03 11:51:38;;;;;;;8.45;4.70;;;;;;;;;;5068905;28;20208;-66
2023/10/03 11:54:08;;;;;;;9.93;4.57;;;;;;;;;;5066762;28;20216;-68
2023/10/03 11:56:40;;;;;;;12.48;4.78;;;;;;;;;;5068654;28;20294;-68
2023/10/03 11:59:07;;;;;;;6.65;4.18;;;;;;;;;;5068613;28;20902;-68
2023/10/03 12:01:35;;;;;;;8.52;4.05;;;;;;;;;;5068608;28;20217;-68
2023/10/03 12:04:02;;;;;;;4.60;4.15;;;;;;;;;;5066816;28;20242;-68
2023/10/03 12:06:34;;;;;;;6.40;3.78;;;;;;;;;;5067304;28;20207;-66
2023/10/03 12:09:01;;;;;;;5.95;4.00;;;;;;;;;;5056433;28;20281;-66
2023/10/03 12:11:28;;;;;;;6.72;4.15;;;;;;;;;;5063928;28;20206;-66
2023/10/03 12:13:55;;;;;;;9.25;4.35;;;;;;;;;;5068436;28;20259;-66
2023/10/03 12:16:24;;;;;;;6.32;3.90;;;;;;;;;;5066771;28;20680;-62
2023/10/03 12:18:51;;;;;;;6.10;3.95;;;;;;;;;;5068174;28;20766;-63
2023/10/03 12:21:19;;;;;;;4.03;3.63;;;;;;;;;;5068081;28;20292;-62
2023/10/03 12:23:47;;;;;;;6.43;3.60;;;;;;;;;;5068023;28;20214;-63
2023/10/03 12:26:14;;;;;;;8.52;3.83;;;;;;;;;;5068314;28;20222;-63
2023/10/03 12:28:41;;;;;;;9.77;3.85;;;;;;;;;;5067550;28;20258;-63
2023/10/03 12:31:09;;;;;;;3.65;3.33;;;;;;;;;;5068107;28;20309;-63
2023/10/03 12:33:36;;;;;;;4.40;3.30;;;;;;;;;;5066619;28;20203;-63
2023/10/03 12:36:04;;;;;;;8.30;3.28;;;;;;;;;;5066112;28;20233;-66
2023/10/03 12:38:32;;;;;;;1.95;1.85;;;;;;;;;;5066756;28;20195;-64
2023/10/03 12:41:01;;;;;;;3.05;1.50;;;;;;;;;;5055131;28;20203;-64
2023/10/03 12:43:28;;;;;;;3.20;1.27;;;;;;;;;;5063143;28;20729;-64
2023/10/03 12:45:56;;;;;;;1.98;1.50;;;;;;;;;;5064973;28;20241;-64
2023/10/03 12:48:23;;;;;;;2.08;1.95;;;;;;;;;;5064766;28;20313;-64
2023/10/03 12:50:51;;;;;;;7.40;1.52;;;;;;;;;;5060793;28;20209;-62
2023/10/03 12:53:19;;;;;;;3.75;1.98;;;;;;;;;;5065784;28;20215;-64
2023/10/03 12:55:46;;;;;;;2.22;1.80;;;;;;;;;;5065488;28;20203;-63
2023/10/03 12:58:32;;;;;;;2.22;2.08;;;;;;;;;;5073476;28;20199;-65
2023/10/03 13:00:59;;;;;;;2.70;2.17;;;;;;;;;;5059623;28;20242;-64
2023/10/03 13:03:26;;;;;;;4.38;1.70;;;;;;;;;;5061895;28;20630;-66
2023/10/03 13:05:55;;;;;;;2.53;1.90;;;;;;;;;;5059287;28;20215;-64
2023/10/03 13:08:24;;;;;;;7.30;1.85;;;;;;;;;;5065797;28;20704;-64
2023/10/03 13:10:53;;;;;;;4.20;2.30;;;;;;;;;;5067483;28;20199;-65
2023/10/03 13:13:22;;;;;;;7.15;2.45;;;;;;;;;;5065829;28;20214;-65
2023/10/03 13:15:49;;;;;;;2.03;1.92;;;;;;;;;;5064115;28;20213;-65
2023/10/03 13:18:17;;;;;;;2.75;2.53;;;;;;;;;;5066799;28;20206;-65
2023/10/03 13:20:45;;;;;;;3.58;2.30;;;;;;;;;;5066706;28;20215;-67
2023/10/03 13:23:12;;;;;;;5.40;2.25;;;;;;;;;;5067060;28;20574;-66
2023/10/03 13:25:40;;;;;;;3.38;2.40;;;;;;;;;;5066571;28;20203;-66
2023/10/03 13:28:10;;;;;;;5.50;3.00;;;;;;;;;;5066953;28;20231;-66
2023/10/03 13:30:39;;;;;;;6.15;3.72;;;;;;;;;;5066999;28;20531;-80
2023/10/03 13:33:07;;;;;;;4.43;3.28;;;;;;;;;;5064902;28;20292;-61
2023/10/03 13:35:35;;;;;;;12.18;7.75;;;;;;;;;;5055902;28;20298;-63
2023/10/03 13:38:03;;;;;;;5.95;4.38;;;;;;;;;;5067032;28;20207;-64
2023/10/03 13:40:30;;;;;;;19.48;10.20;;;;;;;;;;5066690;28;20203;-62
2023/10/03 13:43:01;;;;;;;11.75;5.53;;;;;;;;;;5066545;28;20230;-62
2023/10/03 13:45:30;;;;;;;7.65;5.10;;;;;;;;;;5066579;28;20245;-61
2023/10/03 13:48:00;;;;;;;13.27;8.02;;;;;;;;;;5066628;28;20227;-65
2023/10/03 13:50:28;;;;;;;15.40;7.53;;;;;;;;;;5066185;28;20294;-62
2023/10/03 13:52:56;;;;;;;10.05;5.53;;;;;;;;;;5066183;28;20209;-62
2023/10/03 13:55:26;;;;;;;4.80;3.35;;;;;;;;;;5066263;28;20257;-62
2023/10/03 13:57:55;;;;;;;3.70;3.25;;;;;;;;;;5061216;28;20242;-62
2023/10/03 14:00:23;;;;;;;4.90;3.47;;;;;;;;;;5065583;28;20306;-63
2023/10/03 14:02:50;;;;;;;3.60;3.30;;;;;;;;;;5066304;28;20231;-64
2023/10/03 14:05:19;;;;;;;4.63;4.22;;;;;;;;;;5066842;28;20210;-65
2023/10/03 14:07:46;;;;;;;9.63;5.72;;;;;;;;;;5064990;28;20206;-61
2023/10/03 14:10:15;;;;;;;7.68;4.93;;;;;;;;;;5065270;28;20210;-62
2023/10/03 14:12:45;;;;;;;4.40;3.22;;;;;;;;;;5066279;28;20226;-66
2023/10/03 14:15:13;;;;;;;5.93;5.35;;;;;;;;;;5062717;28;20207;-62
2023/10/03 14:17:41;;;;;;;3.10;2.90;;;;;;;;;;5064099;28;20264;-62
2023/10/03 14:20:10;;;;;;;3.13;2.80;;;;;;;;;;5066067;28;20211;-62
2023/10/03 14:22:40;;;;;;;5.35;4.10;;;;;;;;;;5065560;28;20210;-63
2023/10/03 14:25:11;;;;;;;2.60;2.30;;;;;;;;;;5065370;28;20296;-63
2023/10/03 14:27:39;;;;;;;1.88;1.55;;;;;;;;;;5064023;28;20233;-62
2023/10/03 14:30:07;;;;;;;2.20;1.52;;;;;;;;;;5066404;28;21021;-62
2023/10/03 14:32:34;;;;;;;1.02;1.00;;;;;;;;;;5065260;28;20669;-62
2023/10/03 14:35:01;;;;;;;3.55;1.73;;;;;;;;;;5065953;28;20210;-62
2023/10/03 14:37:28;;;;;;;1.70;1.70;;;;;;;;;;5065552;28;20207;-64
2023/10/03 14:39:57;;;;;;;0.70;0.70;;;;;;;;;;5065731;28;20711;-63
2023/10/03 14:42:24;;;;;;;3.30;0.70;;;;;;;;;;5065687;28;20643;-63
2023/10/03 14:44:52;;;;;;;1.08;1.08;;;;;;;;;;5065303;28;20716;-63